sensor_id;sensor_type;location;lat;lon;timestamp;temperature;humidity
13976;DHT22;7062;49.792;9.946;2023-03-01T00:01:07;2.20;99.90
13976;DHT22;7062;49.792;9.946;2023-03-01T00:03:34;2.20;99.90
13976;DHT22;7062;49.792;9.946;2023-03-01T00:06:00;2.30;99.90
13976;DHT22;7062;49.792;9.946;2023-03-01T00:08:26;2.40;99.90
13976;DHT22;7062;49.792;9.946;2023-03-01T00:13:43;2.30;99.90
13976;DHT22;7062;49.792;9.946;2023-03-01T00:16:16;2.30;99.90
13976;DHT22;7062;49.792;9.946;2023-03-01T00:18:42;2.40;99.90
13976;DHT22;7062;49.792;9.946;2023-03-01T00:21:08;2.40;99.90
13976;DHT22;7062;49.792;9.946;2023-03-01T00:23:34;2.40;99.90
13976;DHT22;7062;49.792;9.946;2023-03-01T00:26:00;2.40;99.90
13976;DHT22;7062;49.792;9.946;2023-03-01T00:28:26;2.50;99.90
13976;DHT22;7062;49.792;9.946;2023-03-01T00:30:51;2.50;99.90
13976;DHT22;7062;49.792;9.946;2023-03-01T00:33:17;2.40;99.90
13976;DHT22;7062;49.792;9.946;2023-03-01T00:35:43;2.40;99.90
13976;DHT22;7062;49.792;9.946;2023-03-01T00:38:09;2.40;99.90
13976;DHT22;7062;49.792;9.946;2023-03-01T00:40:35;2.50;99.90
13976;DHT22;7062;49.792;9.946;2023-03-01T00:43:02;2.40;99.90
13976;DHT22;7062;49.792;9.946;2023-03-01T00:45:28;2.40;99.90
13976;DHT22;7062;49.792;9.946;2023-03-01T00:47:56;2.40;99.90
13976;DHT22;7062;49.792;9.946;2023-03-01T00:50:22;2.50;99.90
13976;DHT22;7062;49.792;9.946;2023-03-01T00:52:52;2.30;99.90
13976;DHT22;7062;49.792;9.946;2023-03-01T00:55:18;2.40;99.90
13976;DHT22;7062;49.792;9.946;2023-03-01T00:57:43;2.30;99.90
13976;DHT22;7062;49.792;9.946;2023-03-01T01:00:10;2.30;99.90
13976;DHT22;7062;49.792;9.946;2023-03-01T01:02:37;2.30;99.90
13976;DHT22;7062;49.792;9.946;2023-03-01T01:05:03;2.40;99.90
13976;DHT22;7062;49.792;9.946;2023-03-01T01:07:29;2.30;99.90
13976;DHT22;7062;49.792;9.946;2023-03-01T01:09:55;2.00;99.90
13976;DHT22;7062;49.792;9.946;2023-03-01T01:12:20;2.00;99.90
13976;DHT22;7062;49.792;9.946;2023-03-01T01:14:46;1.90;99.90
13976;DHT22;7062;49.792;9.946;2023-03-01T01:17:12;1.80;99.90
13976;DHT22;7062;49.792;9.946;2023-03-01T01:19:37;1.70;99.90
13976;DHT22;7062;49.792;9.946;2023-03-01T01:22:03;1.50;99.90
13976;DHT22;7062;49.792;9.946;2023-03-01T01:24:29;1.70;99.90
13976;DHT22;7062;49.792;9.946;2023-03-01T01:26:55;1.60;99.90
13976;DHT22;7062;49.792;9.946;2023-03-01T01:29:21;1.60;99.90
13976;DHT22;7062;49.792;9.946;2023-03-01T01:31:46;1.80;99.90
13976;DHT22;7062;49.792;9.946;2023-03-01T01:34:19;1.60;99.90
13976;DHT22;7062;49.792;9.946;2023-03-01T01:36:48;1.70;99.90
13976;DHT22;7062;49.792;9.946;2023-03-01T01:39:15;1.60;99.90
13976;DHT22;7062;49.792;9.946;2023-03-01T01:41:42;1.80;99.90
13976;DHT22;7062;49.792;9.946;2023-03-01T01:46:47;1.80;99.90
13976;DHT22;7062;49.792;9.946;2023-03-01T01:49:35;1.80;99.90
13976;DHT22;7062;49.792;9.946;2023-03-01T01:54:38;1.80;99.90
13976;DHT22;7062;49.792;9.946;2023-03-01T01:57:09;1.80;99.90
13976;DHT22;7062;49.792;9.946;2023-03-01T01:59:37;1.80;99.90
13976;DHT22;7062;49.792;9.946;2023-03-01T02:02:04;1.80;99.90
13976;DHT22;7062;49.792;9.946;2023-03-01T02:04:31;1.70;99.90
13976;DHT22;7062;49.792;9.946;2023-03-01T02:07:07;1.60;99.90
13976;DHT22;7062;49.792;9.946;2023-03-01T02:09:34;1.50;99.90
13976;DHT22;7062;49.792;9.946;2023-03-01T02:12:01;1.50;99.90
13976;DHT22;7062;49.792;9.946;2023-03-01T02:14:27;1.50;99.90
13976;DHT22;7062;49.792;9.946;2023-03-01T02:16:53;1.50;99.90
13976;DHT22;7062;49.792;9.946;2023-03-01T02:19:40;1.40;99.90
13976;DHT22;7062;49.792;9.946;2023-03-01T02:22:30;1.40;99.90
13976;DHT22;7062;49.792;9.946;2023-03-01T02:30:29;1.30;99.90
13976;DHT22;7062;49.792;9.946;2023-03-01T02:32:57;1.20;99.90
13976;DHT22;7062;49.792;9.946;2023-03-01T02:35:37;1.30;99.90
13976;DHT22;7062;49.792;9.946;2023-03-01T02:38:06;1.30;99.90
13976;DHT22;7062;49.792;9.946;2023-03-01T02:40:34;1.30;99.90
13976;DHT22;7062;49.792;9.946;2023-03-01T02:43:01;1.20;99.90
13976;DHT22;7062;49.792;9.946;2023-03-01T02:45:29;1.30;99.90
13976;DHT22;7062;49.792;9.946;2023-03-01T02:47:56;1.30;99.90
13976;DHT22;7062;49.792;9.946;2023-03-01T02:55:37;1.50;99.90
13976;DHT22;7062;49.792;9.946;2023-03-01T02:58:04;1.50;99.90
13976;DHT22;7062;49.792;9.946;2023-03-01T03:00:38;1.50;99.90
13976;DHT22;7062;49.792;9.946;2023-03-01T03:03:06;1.60;99.90
13976;DHT22;7062;49.792;9.946;2023-03-01T03:05:32;1.50;99.90
13976;DHT22;7062;49.792;9.946;2023-03-01T03:08:00;1.60;99.90
13976;DHT22;7062;49.792;9.946;2023-03-01T03:10:29;1.60;99.90
13976;DHT22;7062;49.792;9.946;2023-03-01T03:13:00;1.70;99.90
13976;DHT22;7062;49.792;9.946;2023-03-01T03:15:27;1.70;99.90
13976;DHT22;7062;49.792;9.946;2023-03-01T03:17:55;1.50;99.90
13976;DHT22;7062;49.792;9.946;2023-03-01T03:20:23;1.60;99.90
13976;DHT22;7062;49.792;9.946;2023-03-01T03:22:51;1.60;99.90
13976;DHT22;7062;49.792;9.946;2023-03-01T03:25:18;1.60;99.90
13976;DHT22;7062;49.792;9.946;2023-03-01T03:27:46;1.60;99.90
13976;DHT22;7062;49.792;9.946;2023-03-01T03:30:17;1.50;99.90
13976;DHT22;7062;49.792;9.946;2023-03-01T03:32:44;1.40;99.90
13976;DHT22;7062;49.792;9.946;2023-03-01T03:35:26;1.30;99.90
13976;DHT22;7062;49.792;9.946;2023-03-01T03:37:53;1.30;99.90
13976;DHT22;7062;49.792;9.946;2023-03-01T03:40:40;1.30;99.90
13976;DHT22;7062;49.792;9.946;2023-03-01T03:43:09;1.20;99.90
13976;DHT22;7062;49.792;9.946;2023-03-01T03:45:36;1.10;99.90
13976;DHT22;7062;49.792;9.946;2023-03-01T03:48:03;1.00;99.90
13976;DHT22;7062;49.792;9.946;2023-03-01T03:50:29;1.00;99.90
13976;DHT22;7062;49.792;9.946;2023-03-01T03:52:55;1.10;99.90
13976;DHT22;7062;49.792;9.946;2023-03-01T03:55:20;1.00;99.90
13976;DHT22;7062;49.792;9.946;2023-03-01T03:57:47;1.10;99.90
13976;DHT22;7062;49.792;9.946;2023-03-01T04:00:19;1.10;99.90
13976;DHT22;7062;49.792;9.946;2023-03-01T04:02:46;1.20;99.90
13976;DHT22;7062;49.792;9.946;2023-03-01T04:05:14;1.10;99.90
13976;DHT22;7062;49.792;9.946;2023-03-01T04:07:40;1.20;99.90
13976;DHT22;7062;49.792;9.946;2023-03-01T04:10:09;1.20;99.90
13976;DHT22;7062;49.792;9.946;2023-03-01T04:12:35;1.10;99.90
13976;DHT22;7062;49.792;9.946;2023-03-01T04:15:02;1.10;99.90
13976;DHT22;7062;49.792;9.946;2023-03-01T04:17:38;1.20;99.90
13976;DHT22;7062;49.792;9.946;2023-03-01T04:20:05;1.20;99.90
13976;DHT22;7062;49.792;9.946;2023-03-01T04:22:32;1.20;99.90
13976;DHT22;7062;49.792;9.946;2023-03-01T04:24:58;1.30;99.90
13976;DHT22;7062;49.792;9.946;2023-03-01T04:27:34;1.40;99.90
13976;DHT22;7062;49.792;9.946;2023-03-01T04:30:01;1.30;99.90
13976;DHT22;7062;49.792;9.946;2023-03-01T04:32:27;1.30;99.90
13976;DHT22;7062;49.792;9.946;2023-03-01T04:34:53;1.40;99.90
13976;DHT22;7062;49.792;9.946;2023-03-01T04:37:19;1.40;99.90
13976;DHT22;7062;49.792;9.946;2023-03-01T04:39:44;1.40;99.90
13976;DHT22;7062;49.792;9.946;2023-03-01T04:42:13;1.20;99.90
13976;DHT22;7062;49.792;9.946;2023-03-01T04:44:39;1.20;99.90
13976;DHT22;7062;49.792;9.946;2023-03-01T04:47:05;1.20;99.90
13976;DHT22;7062;49.792;9.946;2023-03-01T04:49:30;1.30;99.90
13976;DHT22;7062;49.792;9.946;2023-03-01T04:51:56;1.30;99.90
13976;DHT22;7062;49.792;9.946;2023-03-01T04:54:23;1.30;99.90
13976;DHT22;7062;49.792;9.946;2023-03-01T04:56:49;1.20;99.90
13976;DHT22;7062;49.792;9.946;2023-03-01T04:59:15;1.20;99.90
13976;DHT22;7062;49.792;9.946;2023-03-01T05:01:40;1.20;99.90
13976;DHT22;7062;49.792;9.946;2023-03-01T05:04:08;1.20;99.90
13976;DHT22;7062;49.792;9.946;2023-03-01T05:06:38;1.10;99.90
13976;DHT22;7062;49.792;9.946;2023-03-01T05:09:04;1.20;99.90
13976;DHT22;7062;49.792;9.946;2023-03-01T05:11:30;1.30;99.90
13976;DHT22;7062;49.792;9.946;2023-03-01T05:13:59;1.30;99.90
13976;DHT22;7062;49.792;9.946;2023-03-01T05:16:25;1.30;99.90
13976;DHT22;7062;49.792;9.946;2023-03-01T05:18:50;1.20;99.90
13976;DHT22;7062;49.792;9.946;2023-03-01T05:21:16;1.30;99.90
13976;DHT22;7062;49.792;9.946;2023-03-01T05:23:42;1.20;99.90
13976;DHT22;7062;49.792;9.946;2023-03-01T05:26:08;1.20;99.90
13976;DHT22;7062;49.792;9.946;2023-03-01T05:28:35;1.20;99.90
13976;DHT22;7062;49.792;9.946;2023-03-01T05:31:00;1.20;99.90
13976;DHT22;7062;49.792;9.946;2023-03-01T05:33:27;1.20;99.90
13976;DHT22;7062;49.792;9.946;2023-03-01T05:35:53;1.20;99.90
13976;DHT22;7062;49.792;9.946;2023-03-01T05:38:20;1.30;99.90
13976;DHT22;7062;49.792;9.946;2023-03-01T05:40:47;1.30;99.90
13976;DHT22;7062;49.792;9.946;2023-03-01T05:43:15;1.40;99.90
13976;DHT22;7062;49.792;9.946;2023-03-01T05:45:42;1.20;99.90
13976;DHT22;7062;49.792;9.946;2023-03-01T05:48:09;1.20;99.90
13976;DHT22;7062;49.792;9.946;2023-03-01T05:50:38;1.30;99.90
13976;DHT22;7062;49.792;9.946;2023-03-01T05:53:16;1.30;99.90
13976;DHT22;7062;49.792;9.946;2023-03-01T05:55:43;1.30;99.90
13976;DHT22;7062;49.792;9.946;2023-03-01T05:58:13;1.30;99.90
13976;DHT22;7062;49.792;9.946;2023-03-01T06:00:39;1.30;99.90
13976;DHT22;7062;49.792;9.946;2023-03-01T06:03:05;1.30;99.90
13976;DHT22;7062;49.792;9.946;2023-03-01T06:05:31;1.20;99.90
13976;DHT22;7062;49.792;9.946;2023-03-01T06:08:00;1.30;99.90
13976;DHT22;7062;49.792;9.946;2023-03-01T06:10:26;1.30;99.90
13976;DHT22;7062;49.792;9.946;2023-03-01T06:12:53;1.40;99.90
13976;DHT22;7062;49.792;9.946;2023-03-01T06:15:19;1.40;99.90
13976;DHT22;7062;49.792;9.946;2023-03-01T06:17:46;1.50;99.90
13976;DHT22;7062;49.792;9.946;2023-03-01T06:20:15;1.50;99.90
13976;DHT22;7062;49.792;9.946;2023-03-01T06:22:42;1.30;99.90
13976;DHT22;7062;49.792;9.946;2023-03-01T06:25:09;1.40;99.90
13976;DHT22;7062;49.792;9.946;2023-03-01T06:27:34;1.50;99.90
13976;DHT22;7062;49.792;9.946;2023-03-01T06:30:00;1.50;99.90
13976;DHT22;7062;49.792;9.946;2023-03-01T06:32:26;1.50;99.90
13976;DHT22;7062;49.792;9.946;2023-03-01T06:34:52;1.50;99.90
13976;DHT22;7062;49.792;9.946;2023-03-01T06:37:18;1.60;99.90
13976;DHT22;7062;49.792;9.946;2023-03-01T06:39:43;1.60;99.90
13976;DHT22;7062;49.792;9.946;2023-03-01T06:42:09;1.70;99.90
13976;DHT22;7062;49.792;9.946;2023-03-01T06:44:38;1.70;99.90
13976;DHT22;7062;49.792;9.946;2023-03-01T06:47:04;1.70;99.90
13976;DHT22;7062;49.792;9.946;2023-03-01T06:49:30;1.60;99.90
13976;DHT22;7062;49.792;9.946;2023-03-01T06:51:56;1.60;99.90
13976;DHT22;7062;49.792;9.946;2023-03-01T06:54:21;1.60;99.90
13976;DHT22;7062;49.792;9.946;2023-03-01T06:56:48;1.50;99.90
13976;DHT22;7062;49.792;9.946;2023-03-01T06:59:14;1.50;99.90
13976;DHT22;7062;49.792;9.946;2023-03-01T07:01:40;1.60;99.90
13976;DHT22;7062;49.792;9.946;2023-03-01T07:04:06;1.60;99.90
13976;DHT22;7062;49.792;9.946;2023-03-01T07:06:32;1.60;99.90
13976;DHT22;7062;49.792;9.946;2023-03-01T07:08:57;1.50;99.90
13976;DHT22;7062;49.792;9.946;2023-03-01T07:11:24;1.60;99.90
13976;DHT22;7062;49.792;9.946;2023-03-01T07:13:49;1.70;99.90
13976;DHT22;7062;49.792;9.946;2023-03-01T07:16:15;1.70;99.90
13976;DHT22;7062;49.792;9.946;2023-03-01T07:18:41;1.70;99.90
13976;DHT22;7062;49.792;9.946;2023-03-01T07:21:09;1.90;99.90
13976;DHT22;7062;49.792;9.946;2023-03-01T07:23:36;2.00;99.90
13976;DHT22;7062;49.792;9.946;2023-03-01T07:26:02;2.20;99.90
13976;DHT22;7062;49.792;9.946;2023-03-01T07:28:28;2.30;99.90
13976;DHT22;7062;49.792;9.946;2023-03-01T07:30:54;2.40;99.90
13976;DHT22;7062;49.792;9.946;2023-03-01T07:33:20;2.50;99.90
13976;DHT22;7062;49.792;9.946;2023-03-01T07:35:46;2.50;99.90
13976;DHT22;7062;49.792;9.946;2023-03-01T07:38:12;2.60;99.90
13976;DHT22;7062;49.792;9.946;2023-03-01T07:40:37;2.60;99.90
13976;DHT22;7062;49.792;9.946;2023-03-01T07:43:03;2.70;99.90
13976;DHT22;7062;49.792;9.946;2023-03-01T07:45:29;2.80;99.90
13976;DHT22;7062;49.792;9.946;2023-03-01T07:47:55;3.10;99.90
13976;DHT22;7062;49.792;9.946;2023-03-01T07:50:21;3.10;99.90
13976;DHT22;7062;49.792;9.946;2023-03-01T07:52:48;3.20;99.90
13976;DHT22;7062;49.792;9.946;2023-03-01T07:55:15;3.30;99.90
13976;DHT22;7062;49.792;9.946;2023-03-01T07:57:41;3.40;99.90
13976;DHT22;7062;49.792;9.946;2023-03-01T08:00:09;3.50;99.90
13976;DHT22;7062;49.792;9.946;2023-03-01T08:02:35;3.50;99.90
13976;DHT22;7062;49.792;9.946;2023-03-01T08:05:01;3.60;99.90
13976;DHT22;7062;49.792;9.946;2023-03-01T08:07:26;3.50;99.90
13976;DHT22;7062;49.792;9.946;2023-03-01T08:09:52;3.50;99.90
13976;DHT22;7062;49.792;9.946;2023-03-01T08:12:17;3.50;99.90
13976;DHT22;7062;49.792;9.946;2023-03-01T08:14:43;3.60;99.90
13976;DHT22;7062;49.792;9.946;2023-03-01T08:17:09;3.70;99.90
13976;DHT22;7062;49.792;9.946;2023-03-01T08:19:35;3.70;99.90
13976;DHT22;7062;49.792;9.946;2023-03-01T08:22:03;3.70;99.90
13976;DHT22;7062;49.792;9.946;2023-03-01T08:24:29;3.90;99.90
13976;DHT22;7062;49.792;9.946;2023-03-01T08:26:55;3.90;99.90
13976;DHT22;7062;49.792;9.946;2023-03-01T08:29:21;4.10;99.90
13976;DHT22;7062;49.792;9.946;2023-03-01T08:31:48;4.10;99.90
13976;DHT22;7062;49.792;9.946;2023-03-01T08:34:15;4.20;99.90
13976;DHT22;7062;49.792;9.946;2023-03-01T08:36:43;4.40;99.90
13976;DHT22;7062;49.792;9.946;2023-03-01T08:39:12;4.50;99.90
13976;DHT22;7062;49.792;9.946;2023-03-01T08:41:38;4.60;99.90
13976;DHT22;7062;49.792;9.946;2023-03-01T08:44:05;4.70;99.90
13976;DHT22;7062;49.792;9.946;2023-03-01T08:46:34;4.90;99.90
13976;DHT22;7062;49.792;9.946;2023-03-01T08:49:06;5.10;99.90
13976;DHT22;7062;49.792;9.946;2023-03-01T08:51:33;5.20;99.90
13976;DHT22;7062;49.792;9.946;2023-03-01T08:54:03;5.60;99.90
13976;DHT22;7062;49.792;9.946;2023-03-01T08:56:29;5.60;99.90
13976;DHT22;7062;49.792;9.946;2023-03-01T08:58:54;6.10;99.90
13976;DHT22;7062;49.792;9.946;2023-03-01T09:01:20;6.60;99.90
13976;DHT22;7062;49.792;9.946;2023-03-01T09:03:46;7.50;99.90
13976;DHT22;7062;49.792;9.946;2023-03-01T09:06:12;8.60;99.90
13976;DHT22;7062;49.792;9.946;2023-03-01T09:08:41;9.70;99.00
13976;DHT22;7062;49.792;9.946;2023-03-01T09:11:12;10.70;96.60
13976;DHT22;7062;49.792;9.946;2023-03-01T09:13:38;12.00;94.80
13976;DHT22;7062;49.792;9.946;2023-03-01T09:16:05;13.30;92.70
13976;DHT22;7062;49.792;9.946;2023-03-01T09:18:32;13.60;90.70
13976;DHT22;7062;49.792;9.946;2023-03-01T09:21:09;15.20;88.10
13976;DHT22;7062;49.792;9.946;2023-03-01T09:23:36;16.80;82.70
13976;DHT22;7062;49.792;9.946;2023-03-01T09:26:04;17.70;79.30
13976;DHT22;7062;49.792;9.946;2023-03-01T09:28:30;18.40;74.80
13976;DHT22;7062;49.792;9.946;2023-03-01T09:31:00;18.90;72.30
13976;DHT22;7062;49.792;9.946;2023-03-01T09:33:26;17.40;72.80
13976;DHT22;7062;49.792;9.946;2023-03-01T09:36:13;18.20;72.30
13976;DHT22;7062;49.792;9.946;2023-03-01T09:38:39;19.60;70.20
13976;DHT22;7062;49.792;9.946;2023-03-01T09:41:57;20.40;67.80
13976;DHT22;7062;49.792;9.946;2023-03-01T09:44:01;19.70;66.40
13976;DHT22;7062;49.792;9.946;2023-03-01T09:46:33;19.30;67.00
13976;DHT22;7062;49.792;9.946;2023-03-01T09:49:09;19.50;66.40
13976;DHT22;7062;49.792;9.946;2023-03-01T09:51:36;19.80;65.70
13976;DHT22;7062;49.792;9.946;2023-03-01T09:54:03;20.20;64.40
13976;DHT22;7062;49.792;9.946;2023-03-01T09:56:33;20.00;64.60
13976;DHT22;7062;49.792;9.946;2023-03-01T09:59:21;19.70;64.70
13976;DHT22;7062;49.792;9.946;2023-03-01T10:04:45;21.20;63.00
13976;DHT22;7062;49.792;9.946;2023-03-01T10:09:56;20.90;62.40
13976;DHT22;7062;49.792;9.946;2023-03-01T10:12:25;21.70;61.10
13976;DHT22;7062;49.792;9.946;2023-03-01T10:15:11;21.50;60.30
13976;DHT22;7062;49.792;9.946;2023-03-01T10:20:22;22.30;58.70
13976;DHT22;7062;49.792;9.946;2023-03-01T10:22:49;23.30;57.30
13976;DHT22;7062;49.792;9.946;2023-03-01T10:28:36;23.10;56.50
13976;DHT22;7062;49.792;9.946;2023-03-01T10:31:05;23.30;56.50
13976;DHT22;7062;49.792;9.946;2023-03-01T10:33:38;22.90;56.20
13976;DHT22;7062;49.792;9.946;2023-03-01T10:36:05;23.20;55.80
13976;DHT22;7062;49.792;9.946;2023-03-01T10:38:50;24.70;54.70
13976;DHT22;7062;49.792;9.946;2023-03-01T10:41:19;25.60;53.40
13976;DHT22;7062;49.792;9.946;2023-03-01T10:43:48;25.70;51.90
13976;DHT22;7062;49.792;9.946;2023-03-01T10:46:29;24.90;52.50
13976;DHT22;7062;49.792;9.946;2023-03-01T10:49:14;25.30;51.70
13976;DHT22;7062;49.792;9.946;2023-03-01T10:51:43;24.60;51.20
13976;DHT22;7062;49.792;9.946;2023-03-01T10:54:28;24.80;51.20
13976;DHT22;7062;49.792;9.946;2023-03-01T10:56:57;24.40;50.90
13976;DHT22;7062;49.792;9.946;2023-03-01T10:59:28;23.80;51.90
13976;DHT22;7062;49.792;9.946;2023-03-01T11:02:04;24.80;50.40
13976;DHT22;7062;49.792;9.946;2023-03-01T11:04:36;24.80;49.70
13976;DHT22;7062;49.792;9.946;2023-03-01T11:07:02;24.90;51.00
13976;DHT22;7062;49.792;9.946;2023-03-01T11:09:32;24.40;49.80
13976;DHT22;7062;49.792;9.946;2023-03-01T11:12:05;24.10;50.10
13976;DHT22;7062;49.792;9.946;2023-03-01T11:14:39;23.80;51.00
13976;DHT22;7062;49.792;9.946;2023-03-01T11:17:12;23.90;49.90
13976;DHT22;7062;49.792;9.946;2023-03-01T11:19:40;23.10;50.40
13976;DHT22;7062;49.792;9.946;2023-03-01T11:22:12;23.10;51.40
13976;DHT22;7062;49.792;9.946;2023-03-01T11:24:44;24.60;49.70
13976;DHT22;7062;49.792;9.946;2023-03-01T11:27:21;24.50;49.60
13976;DHT22;7062;49.792;9.946;2023-03-01T11:32:20;25.90;48.20
13976;DHT22;7062;49.792;9.946;2023-03-01T11:35:08;25.20;48.10
13976;DHT22;7062;49.792;9.946;2023-03-01T11:37:57;23.90;49.10
13976;DHT22;7062;49.792;9.946;2023-03-01T11:40:27;24.50;48.40
13976;DHT22;7062;49.792;9.946;2023-03-01T11:57:58;24.40;48.10
13976;DHT22;7062;49.792;9.946;2023-03-01T12:00:55;24.30;47.70
13976;DHT22;7062;49.792;9.946;2023-03-01T12:03:39;24.90;47.90
13976;DHT22;7062;49.792;9.946;2023-03-01T12:12:30;25.30;46.30
13976;DHT22;7062;49.792;9.946;2023-03-01T12:20:54;23.10;49.00
13976;DHT22;7062;49.792;9.946;2023-03-01T12:23:46;23.70;48.10
13976;DHT22;7062;49.792;9.946;2023-03-01T12:51:17;24.70;47.20
13976;DHT22;7062;49.792;9.946;2023-03-01T12:53:47;24.80;46.50
13976;DHT22;7062;49.792;9.946;2023-03-01T12:56:23;24.20;47.80
13976;DHT22;7062;49.792;9.946;2023-03-01T12:59:15;24.80;47.20
13976;DHT22;7062;49.792;9.946;2023-03-01T13:01:55;24.70;46.60
13976;DHT22;7062;49.792;9.946;2023-03-01T13:10:00;23.80;46.50
13976;DHT22;7062;49.792;9.946;2023-03-01T13:17:55;24.10;46.70
13976;DHT22;7062;49.792;9.946;2023-03-01T13:20:46;23.10;47.90
13976;DHT22;7062;49.792;9.946;2023-03-01T13:26:03;22.30;49.20
13976;DHT22;7062;49.792;9.946;2023-03-01T13:49:47;24.80;46.80
13976;DHT22;7062;49.792;9.946;2023-03-01T13:55:03;24.40;47.30
13976;DHT22;7062;49.792;9.946;2023-03-01T13:57:36;24.20;47.70
13976;DHT22;7062;49.792;9.946;2023-03-01T14:00:04;23.60;48.40
13976;DHT22;7062;49.792;9.946;2023-03-01T14:02:31;24.10;47.80
13976;DHT22;7062;49.792;9.946;2023-03-01T14:05:00;22.70;48.20
13976;DHT22;7062;49.792;9.946;2023-03-01T14:07:27;22.10;49.80
13976;DHT22;7062;49.792;9.946;2023-03-01T14:10:02;23.30;49.00
13976;DHT22;7062;49.792;9.946;2023-03-01T14:15:36;23.80;48.10
13976;DHT22;7062;49.792;9.946;2023-03-01T14:18:17;23.70;47.30
13976;DHT22;7062;49.792;9.946;2023-03-01T14:20:45;23.80;47.90
13976;DHT22;7062;49.792;9.946;2023-03-01T14:23:20;23.60;48.30
13976;DHT22;7062;49.792;9.946;2023-03-01T14:25:51;24.20;47.40
13976;DHT22;7062;49.792;9.946;2023-03-01T14:28:19;23.90;47.70
13976;DHT22;7062;49.792;9.946;2023-03-01T14:30:49;23.40;47.40
13976;DHT22;7062;49.792;9.946;2023-03-01T14:33:33;23.70;47.80
13976;DHT22;7062;49.792;9.946;2023-03-01T14:36:03;24.40;47.50
13976;DHT22;7062;49.792;9.946;2023-03-01T14:38:38;24.20;47.50
13976;DHT22;7062;49.792;9.946;2023-03-01T14:41:10;23.80;47.90
13976;DHT22;7062;49.792;9.946;2023-03-01T14:43:43;24.20;47.90
13976;DHT22;7062;49.792;9.946;2023-03-01T14:46:38;24.50;47.10
13976;DHT22;7062;49.792;9.946;2023-03-01T14:49:15;24.70;47.20
13976;DHT22;7062;49.792;9.946;2023-03-01T14:52:04;24.40;47.80
13976;DHT22;7062;49.792;9.946;2023-03-01T14:54:42;24.80;47.80
13976;DHT22;7062;49.792;9.946;2023-03-01T14:57:25;24.30;47.20
13976;DHT22;7062;49.792;9.946;2023-03-01T14:59:53;23.80;47.90
13976;DHT22;7062;49.792;9.946;2023-03-01T15:02:22;23.10;48.40
13976;DHT22;7062;49.792;9.946;2023-03-01T15:04:54;22.90;48.60
13976;DHT22;7062;49.792;9.946;2023-03-01T15:07:30;22.00;49.80
13976;DHT22;7062;49.792;9.946;2023-03-01T15:09:58;22.00;49.90
13976;DHT22;7062;49.792;9.946;2023-03-01T15:12:41;21.40;50.10
13976;DHT22;7062;49.792;9.946;2023-03-01T15:15:32;20.30;52.00
13976;DHT22;7062;49.792;9.946;2023-03-01T15:18:01;20.00;52.20
13976;DHT22;7062;49.792;9.946;2023-03-01T15:20:29;20.20;52.50
13976;DHT22;7062;49.792;9.946;2023-03-01T15:23:00;20.80;51.90
13976;DHT22;7062;49.792;9.946;2023-03-01T15:25:28;20.60;51.60
13976;DHT22;7062;49.792;9.946;2023-03-01T15:27:56;20.60;51.70
13976;DHT22;7062;49.792;9.946;2023-03-01T15:30:30;20.30;52.00
13976;DHT22;7062;49.792;9.946;2023-03-01T15:33:19;20.20;52.50
13976;DHT22;7062;49.792;9.946;2023-03-01T15:35:50;19.80;53.20
13976;DHT22;7062;49.792;9.946;2023-03-01T15:41:02;20.10;52.80
13976;DHT22;7062;49.792;9.946;2023-03-01T15:46:20;18.30;54.80
13976;DHT22;7062;49.792;9.946;2023-03-01T15:48:49;17.30;56.60
13976;DHT22;7062;49.792;9.946;2023-03-01T15:51:17;15.80;58.80
13976;DHT22;7062;49.792;9.946;2023-03-01T15:53:50;14.90;60.50
13976;DHT22;7062;49.792;9.946;2023-03-01T15:56:16;14.40;61.70
13976;DHT22;7062;49.792;9.946;2023-03-01T15:58:42;14.30;62.70
13976;DHT22;7062;49.792;9.946;2023-03-01T16:01:13;13.80;63.40
13976;DHT22;7062;49.792;9.946;2023-03-01T16:03:40;13.00;65.20
13976;DHT22;7062;49.792;9.946;2023-03-01T16:06:05;12.60;66.30
13976;DHT22;7062;49.792;9.946;2023-03-01T16:08:31;12.60;66.70
13976;DHT22;7062;49.792;9.946;2023-03-01T16:10:57;12.50;67.10
13976;DHT22;7062;49.792;9.946;2023-03-01T16:13:23;12.30;67.70
13976;DHT22;7062;49.792;9.946;2023-03-01T16:15:52;12.10;68.50
13976;DHT22;7062;49.792;9.946;2023-03-01T16:18:18;11.80;69.70
13976;DHT22;7062;49.792;9.946;2023-03-01T16:20:43;11.70;70.20
13976;DHT22;7062;49.792;9.946;2023-03-01T16:23:10;11.60;70.60
13976;DHT22;7062;49.792;9.946;2023-03-01T16:25:36;11.70;70.80
13976;DHT22;7062;49.792;9.946;2023-03-01T16:28:03;11.70;70.60
13976;DHT22;7062;49.792;9.946;2023-03-01T16:30:34;11.70;70.70
13976;DHT22;7062;49.792;9.946;2023-03-01T16:33:00;11.50;71.00
13976;DHT22;7062;49.792;9.946;2023-03-01T16:35:26;11.50;71.50
13976;DHT22;7062;49.792;9.946;2023-03-01T16:37:52;11.50;71.70
13976;DHT22;7062;49.792;9.946;2023-03-01T16:40:21;11.20;72.20
13976;DHT22;7062;49.792;9.946;2023-03-01T16:42:48;11.00;73.20
13976;DHT22;7062;49.792;9.946;2023-03-01T16:45:15;10.90;73.50
13976;DHT22;7062;49.792;9.946;2023-03-01T16:47:41;11.10;73.40
13976;DHT22;7062;49.792;9.946;2023-03-01T16:50:07;11.00;73.50
13976;DHT22;7062;49.792;9.946;2023-03-01T16:52:33;10.60;74.40
13976;DHT22;7062;49.792;9.946;2023-03-01T16:54:59;10.70;74.80
13976;DHT22;7062;49.792;9.946;2023-03-01T16:57:25;10.30;75.80
13976;DHT22;7062;49.792;9.946;2023-03-01T16:59:54;10.10;76.40
13976;DHT22;7062;49.792;9.946;2023-03-01T17:02:19;10.00;76.70
13976;DHT22;7062;49.792;9.946;2023-03-01T17:04:51;9.70;77.50
13976;DHT22;7062;49.792;9.946;2023-03-01T17:07:17;9.70;78.10
13976;DHT22;7062;49.792;9.946;2023-03-01T17:09:42;9.80;77.80
13976;DHT22;7062;49.792;9.946;2023-03-01T17:12:08;9.70;78.10
13976;DHT22;7062;49.792;9.946;2023-03-01T17:14:34;9.50;78.80
13976;DHT22;7062;49.792;9.946;2023-03-01T17:17:00;9.60;78.90
13976;DHT22;7062;49.792;9.946;2023-03-01T17:19:26;9.20;79.70
13976;DHT22;7062;49.792;9.946;2023-03-01T17:21:52;9.30;80.00
13976;DHT22;7062;49.792;9.946;2023-03-01T17:24:18;9.20;80.40
13976;DHT22;7062;49.792;9.946;2023-03-01T17:26:44;9.20;80.60
13976;DHT22;7062;49.792;9.946;2023-03-01T17:29:10;9.20;80.90
13976;DHT22;7062;49.792;9.946;2023-03-01T17:31:36;9.30;81.00
13976;DHT22;7062;49.792;9.946;2023-03-01T17:34:01;9.20;81.20
13976;DHT22;7062;49.792;9.946;2023-03-01T17:36:27;9.20;81.20
13976;DHT22;7062;49.792;9.946;2023-03-01T17:38:53;9.00;81.80
13976;DHT22;7062;49.792;9.946;2023-03-01T17:41:18;8.70;82.80
13976;DHT22;7062;49.792;9.946;2023-03-01T17:43:46;8.60;83.50
13976;DHT22;7062;49.792;9.946;2023-03-01T17:46:12;8.70;83.60
13976;DHT22;7062;49.792;9.946;2023-03-01T17:48:38;8.70;83.70
13976;DHT22;7062;49.792;9.946;2023-03-01T17:51:09;8.40;84.10
13976;DHT22;7062;49.792;9.946;2023-03-01T17:53:36;8.50;84.30
13976;DHT22;7062;49.792;9.946;2023-03-01T17:56:05;8.40;84.90
13976;DHT22;7062;49.792;9.946;2023-03-01T17:58:31;8.50;84.60
13976;DHT22;7062;49.792;9.946;2023-03-01T18:01:14;8.60;84.60
13976;DHT22;7062;49.792;9.946;2023-03-01T18:03:41;8.70;84.60
13976;DHT22;7062;49.792;9.946;2023-03-01T18:06:18;8.70;84.50
13976;DHT22;7062;49.792;9.946;2023-03-01T18:08:45;8.70;84.60
13976;DHT22;7062;49.792;9.946;2023-03-01T18:11:14;8.60;84.80
13976;DHT22;7062;49.792;9.946;2023-03-01T18:13:40;8.30;85.70
13976;DHT22;7062;49.792;9.946;2023-03-01T18:16:12;8.20;86.10
13976;DHT22;7062;49.792;9.946;2023-03-01T18:18:38;8.30;86.20